sensor_id;sensor_type;location;lat;lon;timestamp;temperature;humidity
37300;DHT22;23184;51.902;12.836;2022-10-23T00:04:19;11.10;99.90
37300;DHT22;23184;51.902;12.836;2022-10-23T00:06:46;11.10;99.90
37300;DHT22;23184;51.902;12.836;2022-10-23T00:09:14;11.10;99.90
37300;DHT22;23184;51.902;12.836;2022-10-23T00:11:42;11.00;99.90
37300;DHT22;23184;51.902;12.836;2022-10-23T00:14:09;11.00;99.90
37300;DHT22;23184;51.902;12.836;2022-10-23T00:16:35;11.00;99.90
37300;DHT22;23184;51.902;12.836;2022-10-23T00:19:02;11.00;99.90
37300;DHT22;23184;51.902;12.836;2022-10-23T00:21:28;11.30;99.90
37300;DHT22;23184;51.902;12.836;2022-10-23T00:23:53;11.40;99.90
37300;DHT22;23184;51.902;12.836;2022-10-23T00:26:19;11.50;99.90
37300;DHT22;23184;51.902;12.836;2022-10-23T00:28:50;11.50;99.90
37300;DHT22;23184;51.902;12.836;2022-10-23T00:31:17;11.60;99.90
37300;DHT22;23184;51.902;12.836;2022-10-23T00:33:43;11.60;99.90
37300;DHT22;23184;51.902;12.836;2022-10-23T00:36:11;11.40;99.90
37300;DHT22;23184;51.902;12.836;2022-10-23T00:38:38;11.40;99.90
37300;DHT22;23184;51.902;12.836;2022-10-23T00:41:06;11.40;99.90
37300;DHT22;23184;51.902;12.836;2022-10-23T00:43:34;11.30;99.90
37300;DHT22;23184;51.902;12.836;2022-10-23T00:46:00;11.30;99.90
37300;DHT22;23184;51.902;12.836;2022-10-23T00:48:27;11.30;99.90
37300;DHT22;23184;51.902;12.836;2022-10-23T00:50:53;11.20;99.90
37300;DHT22;23184;51.902;12.836;2022-10-23T00:53:20;11.10;99.90
37300;DHT22;23184;51.902;12.836;2022-10-23T00:55:47;11.10;99.90
37300;DHT22;23184;51.902;12.836;2022-10-23T00:58:16;11.10;99.90
37300;DHT22;23184;51.902;12.836;2022-10-23T01:00:48;11.00;99.90
37300;DHT22;23184;51.902;12.836;2022-10-23T01:03:16;11.00;99.90
37300;DHT22;23184;51.902;12.836;2022-10-23T01:08:46;11.10;99.90
37300;DHT22;23184;51.902;12.836;2022-10-23T01:11:38;11.10;99.90
37300;DHT22;23184;51.902;12.836;2022-10-23T01:16:41;11.10;99.90
37300;DHT22;23184;51.902;12.836;2022-10-23T01:22:27;11.00;99.90
37300;DHT22;23184;51.902;12.836;2022-10-23T01:25:01;10.90;99.90
37300;DHT22;23184;51.902;12.836;2022-10-23T01:27:35;10.90;99.90
37300;DHT22;23184;51.902;12.836;2022-10-23T01:30:11;10.80;99.90
37300;DHT22;23184;51.902;12.836;2022-10-23T01:32:48;10.80;99.90
37300;DHT22;23184;51.902;12.836;2022-10-23T01:37:45;10.70;99.90
37300;DHT22;23184;51.902;12.836;2022-10-23T01:40:26;10.70;99.90
37300;DHT22;23184;51.902;12.836;2022-10-23T01:42:56;10.70;99.90
37300;DHT22;23184;51.902;12.836;2022-10-23T01:45:38;10.70;99.90
37300;DHT22;23184;51.902;12.836;2022-10-23T01:48:06;10.70;99.90
37300;DHT22;23184;51.902;12.836;2022-10-23T01:50:34;10.70;99.90
37300;DHT22;23184;51.902;12.836;2022-10-23T01:53:02;10.70;99.90
37300;DHT22;23184;51.902;12.836;2022-10-23T01:55:30;10.70;99.90
37300;DHT22;23184;51.902;12.836;2022-10-23T01:57:56;10.70;99.90
37300;DHT22;23184;51.902;12.836;2022-10-23T02:00:22;10.70;99.90
37300;DHT22;23184;51.902;12.836;2022-10-23T02:02:49;10.80;99.90
37300;DHT22;23184;51.902;12.836;2022-10-23T02:05:24;10.70;99.90
37300;DHT22;23184;51.902;12.836;2022-10-23T02:07:51;10.80;99.90
37300;DHT22;23184;51.902;12.836;2022-10-23T02:10:18;10.80;99.90
37300;DHT22;23184;51.902;12.836;2022-10-23T02:13:04;10.80;99.90
37300;DHT22;23184;51.902;12.836;2022-10-23T02:15:46;10.80;99.90
37300;DHT22;23184;51.902;12.836;2022-10-23T02:18:51;10.80;99.90
37300;DHT22;23184;51.902;12.836;2022-10-23T02:21:30;10.80;99.90
37300;DHT22;23184;51.902;12.836;2022-10-23T02:24:11;10.90;99.90
37300;DHT22;23184;51.902;12.836;2022-10-23T02:26:40;10.90;99.90
37300;DHT22;23184;51.902;12.836;2022-10-23T02:29:15;10.90;99.90
37300;DHT22;23184;51.902;12.836;2022-10-23T02:31:43;11.00;99.90
37300;DHT22;23184;51.902;12.836;2022-10-23T02:34:09;11.00;99.90
37300;DHT22;23184;51.902;12.836;2022-10-23T02:36:35;11.00;99.90
37300;DHT22;23184;51.902;12.836;2022-10-23T02:39:01;10.90;99.90
37300;DHT22;23184;51.902;12.836;2022-10-23T02:41:29;10.90;99.90
37300;DHT22;23184;51.902;12.836;2022-10-23T02:49:18;10.80;99.90
37300;DHT22;23184;51.902;12.836;2022-10-23T02:51:58;10.80;99.90
37300;DHT22;23184;51.902;12.836;2022-10-23T02:54:45;10.80;99.90
37300;DHT22;23184;51.902;12.836;2022-10-23T02:57:49;10.90;99.90
37300;DHT22;23184;51.902;12.836;2022-10-23T03:00:18;10.90;99.90
37300;DHT22;23184;51.902;12.836;2022-10-23T03:05:24;10.90;99.90
37300;DHT22;23184;51.902;12.836;2022-10-23T03:07:50;10.80;99.90
37300;DHT22;23184;51.902;12.836;2022-10-23T03:10:16;10.80;99.90
37300;DHT22;23184;51.902;12.836;2022-10-23T03:12:42;10.80;99.90
37300;DHT22;23184;51.902;12.836;2022-10-23T03:15:10;10.80;99.90
37300;DHT22;23184;51.902;12.836;2022-10-23T03:17:36;10.90;99.90
37300;DHT22;23184;51.902;12.836;2022-10-23T03:20:03;10.90;99.90
37300;DHT22;23184;51.902;12.836;2022-10-23T03:22:29;10.80;99.90
37300;DHT22;23184;51.902;12.836;2022-10-23T03:24:54;10.80;99.90
37300;DHT22;23184;51.902;12.836;2022-10-23T03:27:20;10.70;99.90
37300;DHT22;23184;51.902;12.836;2022-10-23T03:29:45;10.70;99.90
37300;DHT22;23184;51.902;12.836;2022-10-23T03:32:11;10.70;99.90
37300;DHT22;23184;51.902;12.836;2022-10-23T03:34:36;10.60;99.90
37300;DHT22;23184;51.902;12.836;2022-10-23T03:37:02;10.40;99.90
37300;DHT22;23184;51.902;12.836;2022-10-23T03:39:28;10.30;99.90
37300;DHT22;23184;51.902;12.836;2022-10-23T03:41:53;10.30;99.90
37300;DHT22;23184;51.902;12.836;2022-10-23T03:44:19;10.30;99.90
37300;DHT22;23184;51.902;12.836;2022-10-23T03:46:44;10.40;99.90
37300;DHT22;23184;51.902;12.836;2022-10-23T03:49:10;10.40;99.90
37300;DHT22;23184;51.902;12.836;2022-10-23T03:51:35;10.40;99.90
37300;DHT22;23184;51.902;12.836;2022-10-23T03:54:01;10.30;99.90
37300;DHT22;23184;51.902;12.836;2022-10-23T03:56:26;10.30;99.90
37300;DHT22;23184;51.902;12.836;2022-10-23T03:58:52;10.20;99.90
37300;DHT22;23184;51.902;12.836;2022-10-23T04:01:18;10.00;99.90
37300;DHT22;23184;51.902;12.836;2022-10-23T04:03:43;9.80;99.90
37300;DHT22;23184;51.902;12.836;2022-10-23T04:06:09;9.60;99.90
37300;DHT22;23184;51.902;12.836;2022-10-23T04:08:35;9.50;99.90
37300;DHT22;23184;51.902;12.836;2022-10-23T04:11:00;9.50;99.90
37300;DHT22;23184;51.902;12.836;2022-10-23T04:13:26;9.50;99.90
37300;DHT22;23184;51.902;12.836;2022-10-23T04:15:52;9.60;99.90
37300;DHT22;23184;51.902;12.836;2022-10-23T04:18:18;9.70;99.90
37300;DHT22;23184;51.902;12.836;2022-10-23T04:20:46;9.80;99.90
37300;DHT22;23184;51.902;12.836;2022-10-23T04:23:13;9.90;99.90
37300;DHT22;23184;51.902;12.836;2022-10-23T04:25:39;9.90;99.90
37300;DHT22;23184;51.902;12.836;2022-10-23T04:28:04;9.90;99.90
37300;DHT22;23184;51.902;12.836;2022-10-23T04:30:30;9.80;99.90
37300;DHT22;23184;51.902;12.836;2022-10-23T04:32:55;9.80;99.90
37300;DHT22;23184;51.902;12.836;2022-10-23T04:35:21;9.90;99.90
37300;DHT22;23184;51.902;12.836;2022-10-23T04:37:46;9.90;99.90
37300;DHT22;23184;51.902;12.836;2022-10-23T04:40:12;9.90;99.90
37300;DHT22;23184;51.902;12.836;2022-10-23T04:42:37;10.00;99.90
37300;DHT22;23184;51.902;12.836;2022-10-23T04:45:04;10.20;99.90
37300;DHT22;23184;51.902;12.836;2022-10-23T04:47:29;10.20;99.90
37300;DHT22;23184;51.902;12.836;2022-10-23T04:49:55;10.30;99.90
37300;DHT22;23184;51.902;12.836;2022-10-23T04:52:21;10.30;99.90
37300;DHT22;23184;51.902;12.836;2022-10-23T04:54:46;10.30;99.90
37300;DHT22;23184;51.902;12.836;2022-10-23T04:57:12;10.30;99.90
37300;DHT22;23184;51.902;12.836;2022-10-23T04:59:37;10.30;99.90
37300;DHT22;23184;51.902;12.836;2022-10-23T05:02:03;10.20;99.90
37300;DHT22;23184;51.902;12.836;2022-10-23T05:04:29;10.20;99.90
37300;DHT22;23184;51.902;12.836;2022-10-23T05:06:54;10.00;99.90
37300;DHT22;23184;51.902;12.836;2022-10-23T05:09:20;10.00;99.90
37300;DHT22;23184;51.902;12.836;2022-10-23T05:11:47;9.80;99.90
37300;DHT22;23184;51.902;12.836;2022-10-23T05:14:13;9.70;99.90
37300;DHT22;23184;51.902;12.836;2022-10-23T05:16:51;9.60;99.90
37300;DHT22;23184;51.902;12.836;2022-10-23T05:19:20;9.50;99.90
37300;DHT22;23184;51.902;12.836;2022-10-23T05:21:47;9.50;99.90
37300;DHT22;23184;51.902;12.836;2022-10-23T05:24:13;9.50;99.90
37300;DHT22;23184;51.902;12.836;2022-10-23T05:26:39;9.50;99.90
37300;DHT22;23184;51.902;12.836;2022-10-23T05:29:05;9.40;99.90
37300;DHT22;23184;51.902;12.836;2022-10-23T05:31:32;9.40;99.90
37300;DHT22;23184;51.902;12.836;2022-10-23T05:33:59;9.40;99.90
37300;DHT22;23184;51.902;12.836;2022-10-23T05:36:25;9.40;99.90
37300;DHT22;23184;51.902;12.836;2022-10-23T05:38:52;9.50;99.90
37300;DHT22;23184;51.902;12.836;2022-10-23T05:41:18;9.50;99.90
37300;DHT22;23184;51.902;12.836;2022-10-23T05:43:44;9.40;99.90
37300;DHT22;23184;51.902;12.836;2022-10-23T05:46:10;9.50;99.90
37300;DHT22;23184;51.902;12.836;2022-10-23T05:48:36;9.40;99.90
37300;DHT22;23184;51.902;12.836;2022-10-23T05:51:06;9.40;99.90
37300;DHT22;23184;51.902;12.836;2022-10-23T05:53:32;9.50;99.90
37300;DHT22;23184;51.902;12.836;2022-10-23T05:56:03;9.50;99.90
37300;DHT22;23184;51.902;12.836;2022-10-23T05:58:29;9.50;99.90
37300;DHT22;23184;51.902;12.836;2022-10-23T06:00:55;9.50;99.90
37300;DHT22;23184;51.902;12.836;2022-10-23T06:03:20;9.50;99.90
37300;DHT22;23184;51.902;12.836;2022-10-23T06:05:50;9.50;99.90
37300;DHT22;23184;51.902;12.836;2022-10-23T06:08:15;9.50;99.90
37300;DHT22;23184;51.902;12.836;2022-10-23T06:10:41;9.60;99.90
37300;DHT22;23184;51.902;12.836;2022-10-23T06:13:07;9.60;99.90
37300;DHT22;23184;51.902;12.836;2022-10-23T06:15:32;9.70;99.90
37300;DHT22;23184;51.902;12.836;2022-10-23T06:18:02;9.70;99.90
37300;DHT22;23184;51.902;12.836;2022-10-23T06:20:28;9.70;99.90
37300;DHT22;23184;51.902;12.836;2022-10-23T06:22:53;9.70;99.90
37300;DHT22;23184;51.902;12.836;2022-10-23T06:25:19;9.50;99.90
37300;DHT22;23184;51.902;12.836;2022-10-23T06:27:45;9.60;99.90
37300;DHT22;23184;51.902;12.836;2022-10-23T06:30:11;9.60;99.90
37300;DHT22;23184;51.902;12.836;2022-10-23T06:32:36;9.70;99.90
37300;DHT22;23184;51.902;12.836;2022-10-23T06:35:02;9.80;99.90
37300;DHT22;23184;51.902;12.836;2022-10-23T06:37:28;9.90;99.90
37300;DHT22;23184;51.902;12.836;2022-10-23T06:39:53;10.00;99.90
37300;DHT22;23184;51.902;12.836;2022-10-23T06:42:19;10.20;99.90
37300;DHT22;23184;51.902;12.836;2022-10-23T06:44:44;10.40;99.90
37300;DHT22;23184;51.902;12.836;2022-10-23T06:47:10;10.60;99.90
37300;DHT22;23184;51.902;12.836;2022-10-23T06:49:37;10.70;99.90
37300;DHT22;23184;51.902;12.836;2022-10-23T06:52:02;10.80;99.90
37300;DHT22;23184;51.902;12.836;2022-10-23T06:54:28;10.90;99.90
37300;DHT22;23184;51.902;12.836;2022-10-23T06:56:53;11.00;99.90
37300;DHT22;23184;51.902;12.836;2022-10-23T06:59:19;11.10;99.90
37300;DHT22;23184;51.902;12.836;2022-10-23T07:01:45;11.20;99.90
37300;DHT22;23184;51.902;12.836;2022-10-23T07:04:10;11.30;99.90
37300;DHT22;23184;51.902;12.836;2022-10-23T07:06:38;11.30;99.90
37300;DHT22;23184;51.902;12.836;2022-10-23T07:09:03;11.30;99.90
37300;DHT22;23184;51.902;12.836;2022-10-23T07:11:29;11.40;99.90
37300;DHT22;23184;51.902;12.836;2022-10-23T07:13:54;11.50;99.90
37300;DHT22;23184;51.902;12.836;2022-10-23T07:16:21;11.50;99.90
37300;DHT22;23184;51.902;12.836;2022-10-23T07:18:48;11.60;99.90
37300;DHT22;23184;51.902;12.836;2022-10-23T07:21:14;11.60;99.90
37300;DHT22;23184;51.902;12.836;2022-10-23T07:23:40;11.70;99.90
37300;DHT22;23184;51.902;12.836;2022-10-23T07:26:13;11.80;99.90
37300;DHT22;23184;51.902;12.836;2022-10-23T07:28:40;11.90;99.90
37300;DHT22;23184;51.902;12.836;2022-10-23T07:31:07;12.00;99.90
37300;DHT22;23184;51.902;12.836;2022-10-23T07:33:33;12.10;99.90
37300;DHT22;23184;51.902;12.836;2022-10-23T07:35:58;12.10;99.90
37300;DHT22;23184;51.902;12.836;2022-10-23T07:38:25;12.20;99.90
37300;DHT22;23184;51.902;12.836;2022-10-23T07:40:51;12.30;99.90
37300;DHT22;23184;51.902;12.836;2022-10-23T07:43:18;12.30;99.90
37300;DHT22;23184;51.902;12.836;2022-10-23T07:45:48;12.40;99.90
37300;DHT22;23184;51.902;12.836;2022-10-23T07:48:14;12.50;99.90
37300;DHT22;23184;51.902;12.836;2022-10-23T07:50:40;12.50;99.90
37300;DHT22;23184;51.902;12.836;2022-10-23T07:53:05;12.40;99.90
37300;DHT22;23184;51.902;12.836;2022-10-23T07:55:31;12.50;99.90
37300;DHT22;23184;51.902;12.836;2022-10-23T07:57:57;12.60;99.90
37300;DHT22;23184;51.902;12.836;2022-10-23T08:00:22;12.60;99.90
37300;DHT22;23184;51.902;12.836;2022-10-23T08:02:48;12.70;99.90
37300;DHT22;23184;51.902;12.836;2022-10-23T08:05:13;12.80;99.90
37300;DHT22;23184;51.902;12.836;2022-10-23T08:07:39;12.80;99.90
37300;DHT22;23184;51.902;12.836;2022-10-23T08:10:05;12.90;99.90
37300;DHT22;23184;51.902;12.836;2022-10-23T08:12:31;13.00;99.90
37300;DHT22;23184;51.902;12.836;2022-10-23T08:14:56;13.10;99.90
37300;DHT22;23184;51.902;12.836;2022-10-23T08:17:22;13.20;99.90
37300;DHT22;23184;51.902;12.836;2022-10-23T08:19:47;13.30;99.90
37300;DHT22;23184;51.902;12.836;2022-10-23T08:22:14;13.30;99.90
37300;DHT22;23184;51.902;12.836;2022-10-23T08:24:39;13.40;99.90
37300;DHT22;23184;51.902;12.836;2022-10-23T08:27:05;13.50;99.90
37300;DHT22;23184;51.902;12.836;2022-10-23T08:29:30;13.80;99.90
37300;DHT22;23184;51.902;12.836;2022-10-23T08:31:56;14.30;99.90
37300;DHT22;23184;51.902;12.836;2022-10-23T08:34:22;14.70;99.90
37300;DHT22;23184;51.902;12.836;2022-10-23T08:36:48;14.60;99.90
37300;DHT22;23184;51.902;12.836;2022-10-23T08:39:14;14.60;99.90
37300;DHT22;23184;51.902;12.836;2022-10-23T08:41:41;14.80;99.90
37300;DHT22;23184;51.902;12.836;2022-10-23T08:44:25;14.80;99.90
37300;DHT22;23184;51.902;12.836;2022-10-23T08:47:09;15.10;99.90
37300;DHT22;23184;51.902;12.836;2022-10-23T08:49:52;15.40;99.90
37300;DHT22;23184;51.902;12.836;2022-10-23T08:57:27;15.60;99.90
37300;DHT22;23184;51.902;12.836;2022-10-23T09:00:07;15.50;99.90
37300;DHT22;23184;51.902;12.836;2022-10-23T09:02:39;15.40;99.90
37300;DHT22;23184;51.902;12.836;2022-10-23T09:05:13;15.80;99.90
37300;DHT22;23184;51.902;12.836;2022-10-23T09:13:28;16.80;99.90
37300;DHT22;23184;51.902;12.836;2022-10-23T09:21:42;19.00;99.90
37300;DHT22;23184;51.902;12.836;2022-10-23T09:24:14;18.70;99.90
37300;DHT22;23184;51.902;12.836;2022-10-23T09:26:43;19.20;99.90
37300;DHT22;23184;51.902;12.836;2022-10-23T09:31:52;19.50;99.90
37300;DHT22;23184;51.902;12.836;2022-10-23T09:34:21;19.60;99.90
37300;DHT22;23184;51.902;12.836;2022-10-23T09:36:49;20.00;99.90
37300;DHT22;23184;51.902;12.836;2022-10-23T09:39:22;20.00;99.90
37300;DHT22;23184;51.902;12.836;2022-10-23T09:41:48;19.70;99.90
37300;DHT22;23184;51.902;12.836;2022-10-23T09:44:45;19.30;99.90
37300;DHT22;23184;51.902;12.836;2022-10-23T09:47:08;19.90;99.90
37300;DHT22;23184;51.902;12.836;2022-10-23T09:49:39;20.00;99.90
37300;DHT22;23184;51.902;12.836;2022-10-23T09:54:43;19.80;99.90
37300;DHT22;23184;51.902;12.836;2022-10-23T09:57:32;19.30;99.90
37300;DHT22;23184;51.902;12.836;2022-10-23T10:00:02;19.00;99.90
37300;DHT22;23184;51.902;12.836;2022-10-23T10:02:31;18.60;99.90
37300;DHT22;23184;51.902;12.836;2022-10-23T10:04:57;18.50;99.90
37300;DHT22;23184;51.902;12.836;2022-10-23T10:07:28;17.90;99.90
37300;DHT22;23184;51.902;12.836;2022-10-23T10:09:55;17.90;99.90
37300;DHT22;23184;51.902;12.836;2022-10-23T10:18:13;17.30;99.90
37300;DHT22;23184;51.902;12.836;2022-10-23T10:31:26;16.60;99.90
37300;DHT22;23184;51.902;12.836;2022-10-23T10:45:53;17.00;99.90
37300;DHT22;23184;51.902;12.836;2022-10-23T10:48:30;17.10;99.90
37300;DHT22;23184;51.902;12.836;2022-10-23T10:51:04;16.90;99.90
37300;DHT22;23184;51.902;12.836;2022-10-23T10:54:02;16.80;99.90
37300;DHT22;23184;51.902;12.836;2022-10-23T10:56:34;17.00;99.90
37300;DHT22;23184;51.902;12.836;2022-10-23T10:59:12;17.30;99.90
37300;DHT22;23184;51.902;12.836;2022-10-23T11:06:51;17.30;99.90
37300;DHT22;23184;51.902;12.836;2022-10-23T11:09:25;17.40;99.90
37300;DHT22;23184;51.902;12.836;2022-10-23T11:11:51;17.40;99.90
37300;DHT22;23184;51.902;12.836;2022-10-23T11:14:23;17.40;99.90
37300;DHT22;23184;51.902;12.836;2022-10-23T11:16:50;17.40;99.90
37300;DHT22;23184;51.902;12.836;2022-10-23T11:20:14;17.50;99.90
37300;DHT22;23184;51.902;12.836;2022-10-23T11:30:24;17.80;99.90
37300;DHT22;23184;51.902;12.836;2022-10-23T11:38:04;17.80;99.90
37300;DHT22;23184;51.902;12.836;2022-10-23T11:40:32;17.80;99.90
37300;DHT22;23184;51.902;12.836;2022-10-23T11:42:58;17.70;99.90
37300;DHT22;23184;51.902;12.836;2022-10-23T11:45:32;17.80;99.90
37300;DHT22;23184;51.902;12.836;2022-10-23T11:48:04;17.90;99.90
37300;DHT22;23184;51.902;12.836;2022-10-23T11:50:32;18.10;99.90
37300;DHT22;23184;51.902;12.836;2022-10-23T11:53:01;18.10;99.90
37300;DHT22;23184;51.902;12.836;2022-10-23T11:55:30;18.20;99.90
37300;DHT22;23184;51.902;12.836;2022-10-23T12:00:48;18.40;99.90
37300;DHT22;23184;51.902;12.836;2022-10-23T12:03:23;18.40;99.90
37300;DHT22;23184;51.902;12.836;2022-10-23T12:06:02;18.40;99.90
37300;DHT22;23184;51.902;12.836;2022-10-23T12:08:30;18.60;99.90
37300;DHT22;23184;51.902;12.836;2022-10-23T12:10:56;18.60;99.90
37300;DHT22;23184;51.902;12.836;2022-10-23T12:16:04;18.70;99.90
37300;DHT22;23184;51.902;12.836;2022-10-23T12:18:30;18.50;99.90
37300;DHT22;23184;51.902;12.836;2022-10-23T12:20:56;18.40;99.90
37300;DHT22;23184;51.902;12.836;2022-10-23T12:40:13;18.80;99.90
37300;DHT22;23184;51.902;12.836;2022-10-23T12:42:40;18.80;99.90
37300;DHT22;23184;51.902;12.836;2022-10-23T12:47:45;18.90;99.90
37300;DHT22;23184;51.902;12.836;2022-10-23T12:50:24;19.00;99.90
37300;DHT22;23184;51.902;12.836;2022-10-23T12:53:01;19.00;99.90
37300;DHT22;23184;51.902;12.836;2022-10-23T12:55:30;19.00;99.90
37300;DHT22;23184;51.902;12.836;2022-10-23T12:57:56;19.10;99.90
37300;DHT22;23184;51.902;12.836;2022-10-23T13:00:23;19.20;99.90
37300;DHT22;23184;51.902;12.836;2022-10-23T13:03:00;19.20;99.90
37300;DHT22;23184;51.902;12.836;2022-10-23T13:05:27;19.10;99.90
37300;DHT22;23184;51.902;12.836;2022-10-23T13:07:53;19.00;99.90
37300;DHT22;23184;51.902;12.836;2022-10-23T13:10:21;19.00;99.90
37300;DHT22;23184;51.902;12.836;2022-10-23T13:13:05;18.90;99.90
37300;DHT22;23184;51.902;12.836;2022-10-23T13:15:44;18.80;99.90
37300;DHT22;23184;51.902;12.836;2022-10-23T13:18:11;18.80;99.90
37300;DHT22;23184;51.902;12.836;2022-10-23T13:20:53;18.90;99.90
37300;DHT22;23184;51.902;12.836;2022-10-23T13:23:31;18.80;99.90
37300;DHT22;23184;51.902;12.836;2022-10-23T13:26:50;18.80;99.90
37300;DHT22;23184;51.902;12.836;2022-10-23T13:28:50;19.00;99.90
37300;DHT22;23184;51.902;12.836;2022-10-23T13:33:44;19.00;99.90
37300;DHT22;23184;51.902;12.836;2022-10-23T13:41:41;19.00;99.90
37300;DHT22;23184;51.902;12.836;2022-10-23T13:44:10;18.90;99.90
37300;DHT22;23184;51.902;12.836;2022-10-23T13:46:36;18.90;99.90
37300;DHT22;23184;51.902;12.836;2022-10-23T13:49:01;18.90;99.90
37300;DHT22;23184;51.902;12.836;2022-10-23T13:51:28;18.90;99.90
37300;DHT22;23184;51.902;12.836;2022-10-23T13:53:55;18.90;99.90
37300;DHT22;23184;51.902;12.836;2022-10-23T13:56:23;18.80;99.90
37300;DHT22;23184;51.902;12.836;2022-10-23T13:58:49;18.80;99.90
37300;DHT22;23184;51.902;12.836;2022-10-23T14:03:50;18.70;99.90
37300;DHT22;23184;51.902;12.836;2022-10-23T14:06:16;18.70;99.90
37300;DHT22;23184;51.902;12.836;2022-10-23T14:08:42;18.60;99.90
37300;DHT22;23184;51.902;12.836;2022-10-23T14:11:12;18.50;99.90
37300;DHT22;23184;51.902;12.836;2022-10-23T14:13:38;18.40;99.90
37300;DHT22;23184;51.902;12.836;2022-10-23T14:16:05;18.30;99.90
37300;DHT22;23184;51.902;12.836;2022-10-23T14:18:31;18.30;99.90
37300;DHT22;23184;51.902;12.836;2022-10-23T14:21:05;18.20;99.90
37300;DHT22;23184;51.902;12.836;2022-10-23T14:23:31;18.20;99.90
37300;DHT22;23184;51.902;12.836;2022-10-23T14:26:08;18.10;99.90
37300;DHT22;23184;51.902;12.836;2022-10-23T14:28:34;18.00;99.90
37300;DHT22;23184;51.902;12.836;2022-10-23T14:31:08;18.00;99.90
37300;DHT22;23184;51.902;12.836;2022-10-23T14:33:34;17.90;99.90
37300;DHT22;23184;51.902;12.836;2022-10-23T14:35:59;17.80;99.90
37300;DHT22;23184;51.902;12.836;2022-10-23T14:38:25;17.70;99.90
37300;DHT22;23184;51.902;12.836;2022-10-23T14:40:51;17.60;99.90
37300;DHT22;23184;51.902;12.836;2022-10-23T14:43:17;17.60;99.90
37300;DHT22;23184;51.902;12.836;2022-10-23T14:45:42;17.50;99.90
37300;DHT22;23184;51.902;12.836;2022-10-23T14:48:08;17.40;99.90
37300;DHT22;23184;51.902;12.836;2022-10-23T14:50:35;17.40;99.90
37300;DHT22;23184;51.902;12.836;2022-10-23T14:53:01;17.30;99.90
37300;DHT22;23184;51.902;12.836;2022-10-23T14:55:27;17.20;99.90
37300;DHT22;23184;51.902;12.836;2022-10-23T14:57:56;17.10;99.90
37300;DHT22;23184;51.902;12.836;2022-10-23T15:00:22;17.10;99.90
37300;DHT22;23184;51.902;12.836;2022-10-23T15:02:48;17.00;99.90
37300;DHT22;23184;51.902;12.836;2022-10-23T15:05:14;17.00;99.90
37300;DHT22;23184;51.902;12.836;2022-10-23T15:07:39;16.90;99.90
37300;DHT22;23184;51.902;12.836;2022-10-23T15:10:06;16.80;99.90
37300;DHT22;23184;51.902;12.836;2022-10-23T15:12:36;16.70;99.90
37300;DHT22;23184;51.902;12.836;2022-10-23T15:15:03;16.70;99.90
37300;DHT22;23184;51.902;12.836;2022-10-23T15:17:29;16.60;99.90
37300;DHT22;23184;51.902;12.836;2022-10-23T15:19:56;16.60;99.90
37300;DHT22;23184;51.902;12.836;2022-10-23T15:22:21;16.50;99.90
37300;DHT22;23184;51.902;12.836;2022-10-23T15:24:47;16.50;99.90
37300;DHT22;23184;51.902;12.836;2022-10-23T15:27:13;16.50;99.90
37300;DHT22;23184;51.902;12.836;2022-10-23T15:29:38;16.50;99.90
37300;DHT22;23184;51.902;12.836;2022-10-23T15:32:04;16.40;99.90
37300;DHT22;23184;51.902;12.836;2022-10-23T15:34:31;16.40;99.90
37300;DHT22;23184;51.902;12.836;2022-10-23T15:36:58;16.30;99.90
37300;DHT22;23184;51.902;12.836;2022-10-23T15:39:26;16.30;99.90
37300;DHT22;23184;51.902;12.836;2022-10-23T15:41:54;16.30;99.90
37300;DHT22;23184;51.902;12.836;2022-10-23T15:44:23;16.20;99.90
37300;DHT22;23184;51.902;12.836;2022-10-23T15:46:49;16.20;99.90
37300;DHT22;23184;51.902;12.836;2022-10-23T15:49:17;16.20;99.90
37300;DHT22;23184;51.902;12.836;2022-10-23T15:51:44;16.20;99.90
37300;DHT22;23184;51.902;12.836;2022-10-23T15:54:12;16.20;99.90
37300;DHT22;23184;51.902;12.836;2022-10-23T15:56:43;16.20;99.90
37300;DHT22;23184;51.902;12.836;2022-10-23T15:59:09;16.20;99.90
37300;DHT22;23184;51.902;12.836;2022-10-23T16:01:35;16.20;99.90
37300;DHT22;23184;51.902;12.836;2022-10-23T16:04:00;16.20;99.90
37300;DHT22;23184;51.902;12.836;2022-10-23T16:06:26;16.20;99.90
37300;DHT22;23184;51.902;12.836;2022-10-23T16:08:52;16.20;99.90
37300;DHT22;23184;51.902;12.836;2022-10-23T16:11:24;16.20;99.90
37300;DHT22;23184;51.902;12.836;2022-10-23T16:13:50;16.10;99.90
37300;DHT22;23184;51.902;12.836;2022-10-23T16:16:16;16.10;99.90
37300;DHT22;23184;51.902;12.836;2022-10-23T16:18:42;16.10;99.90
37300;DHT22;23184;51.902;12.836;2022-10-23T16:21:22;16.10;99.90
37300;DHT22;23184;51.902;12.836;2022-10-23T16:23:48;16.10;99.90
37300;DHT22;23184;51.902;12.836;2022-10-23T16:26:15;16.10;99.90
37300;DHT22;23184;51.902;12.836;2022-10-23T16:28:41;16.10;99.90
37300;DHT22;23184;51.902;12.836;2022-10-23T16:31:10;16.20;99.90
37300;DHT22;23184;51.902;12.836;2022-10-23T16:33:36;16.10;99.90
37300;DHT22;23184;51.902;12.836;2022-10-23T16:36:06;16.20;99.90
37300;DHT22;23184;51.902;12.836;2022-10-23T16:38:32;16.10;99.90
37300;DHT22;23184;51.902;12.836;2022-10-23T16:40:58;16.10;99.90
37300;DHT22;23184;51.902;12.836;2022-10-23T16:43:24;16.10;99.90
37300;DHT22;23184;51.902;12.836;2022-10-23T16:46:03;16.00;99.90
37300;DHT22;23184;51.902;12.836;2022-10-23T16:48:30;16.00;99.90
37300;DHT22;23184;51.902;12.836;2022-10-23T16:50:56;16.00;99.90
37300;DHT22;23184;51.902;12.836;2022-10-23T16:53:21;15.90;99.90
37300;DHT22;23184;51.902;12.836;2022-10-23T16:55:49;15.90;99.90
37300;DHT22;23184;51.902;12.836;2022-10-23T16:58:14;15.80;99.90
37300;DHT22;23184;51.902;12.836;2022-10-23T17:00:40;15.80;99.90
37300;DHT22;23184;51.902;12.836;2022-10-23T17:03:05;15.70;99.90
37300;DHT22;23184;51.902;12.836;2022-10-23T17:05:34;15.70;99.90
37300;DHT22;23184;51.902;12.836;2022-10-23T17:08:00;15.60;99.90
37300;DHT22;23184;51.902;12.836;2022-10-23T17:10:26;15.60;99.90
37300;DHT22;23184;51.902;12.836;2022-10-23T17:12:52;15.60;99.90
37300;DHT22;23184;51.902;12.836;2022-10-23T17:15:17;15.50;99.90
37300;DHT22;23184;51.902;12.836;2022-10-23T17:17:45;15.50;99.90
37300;DHT22;23184;51.902;12.836;2022-10-23T17:20:11;15.40;99.90
37300;DHT22;23184;51.902;12.836;2022-10-23T17:22:36;15.40;99.90
37300;DHT22;23184;51.902;12.836;2022-10-23T17:25:04;15.40;99.90
37300;DHT22;23184;51.902;12.836;2022-10-23T17:27:30;15.30;99.90
37300;DHT22;23184;51.902;12.836;2022-10-23T17:29:55;15.20;99.90
37300;DHT22;23184;51.902;12.836;2022-10-23T17:32:21;15.20;99.90